sensor_id;sensor_type;location;lat;lon;timestamp;pressure;altitude;pressure_sealevel;temperature
34807;BMP180;18310;55.586;12.286;2022-08-19T00:00:06;101101.00;;;29.50
34807;BMP180;18310;55.586;12.286;2022-08-19T00:03:11;101089.00;;;29.50
34807;BMP180;18310;55.586;12.286;2022-08-19T00:06:15;101095.00;;;29.40
34807;BMP180;18310;55.586;12.286;2022-08-19T00:09:23;101091.00;;;29.40
34807;BMP180;18310;55.586;12.286;2022-08-19T00:12:27;101081.00;;;29.40
34807;BMP180;18310;55.586;12.286;2022-08-19T00:15:31;101081.00;;;29.40
34807;BMP180;18310;55.586;12.286;2022-08-19T00:18:36;101096.00;;;29.30
34807;BMP180;18310;55.586;12.286;2022-08-19T00:21:39;101104.00;;;29.30
34807;BMP180;18310;55.586;12.286;2022-08-19T00:24:43;101113.00;;;29.30
34807;BMP180;18310;55.586;12.286;2022-08-19T00:27:52;101109.00;;;29.30
34807;BMP180;18310;55.586;12.286;2022-08-19T00:30:55;101104.00;;;29.20
34807;BMP180;18310;55.586;12.286;2022-08-19T00:34:00;101113.00;;;29.20
34807;BMP180;18310;55.586;12.286;2022-08-19T00:37:03;101121.00;;;29.20
34807;BMP180;18310;55.586;12.286;2022-08-19T00:40:11;101141.00;;;29.20
34807;BMP180;18310;55.586;12.286;2022-08-19T00:43:21;101134.00;;;29.20
34807;BMP180;18310;55.586;12.286;2022-08-19T00:46:25;101141.00;;;29.20
34807;BMP180;18310;55.586;12.286;2022-08-19T00:49:34;101129.00;;;29.20
34807;BMP180;18310;55.586;12.286;2022-08-19T00:52:43;101135.00;;;29.30
34807;BMP180;18310;55.586;12.286;2022-08-19T00:55:51;101141.00;;;29.30
34807;BMP180;18310;55.586;12.286;2022-08-19T00:58:58;101146.00;;;29.20
34807;BMP180;18310;55.586;12.286;2022-08-19T01:02:01;101144.00;;;29.20
34807;BMP180;18310;55.586;12.286;2022-08-19T01:05:11;101140.00;;;29.20
34807;BMP180;18310;55.586;12.286;2022-08-19T01:08:18;101144.00;;;29.20
34807;BMP180;18310;55.586;12.286;2022-08-19T01:11:22;101143.00;;;29.20
34807;BMP180;18310;55.586;12.286;2022-08-19T01:14:26;101159.00;;;29.20
34807;BMP180;18310;55.586;12.286;2022-08-19T01:17:29;101159.00;;;29.20
34807;BMP180;18310;55.586;12.286;2022-08-19T01:20:34;101160.00;;;29.20
34807;BMP180;18310;55.586;12.286;2022-08-19T01:23:39;101155.00;;;29.20
34807;BMP180;18310;55.586;12.286;2022-08-19T01:26:46;101158.00;;;29.20
34807;BMP180;18310;55.586;12.286;2022-08-19T01:29:50;101148.00;;;29.30
34807;BMP180;18310;55.586;12.286;2022-08-19T01:32:55;101154.00;;;29.30
34807;BMP180;18310;55.586;12.286;2022-08-19T01:36:06;101160.00;;;29.30
34807;BMP180;18310;55.586;12.286;2022-08-19T01:39:15;101165.00;;;29.30
34807;BMP180;18310;55.586;12.286;2022-08-19T01:42:19;101157.00;;;29.20
34807;BMP180;18310;55.586;12.286;2022-08-19T01:45:33;101168.00;;;29.20
34807;BMP180;18310;55.586;12.286;2022-08-19T01:48:40;101169.00;;;29.20
34807;BMP180;18310;55.586;12.286;2022-08-19T01:51:44;101165.00;;;29.20
34807;BMP180;18310;55.586;12.286;2022-08-19T01:54:49;101160.00;;;29.20
34807;BMP180;18310;55.586;12.286;2022-08-19T01:57:58;101153.00;;;29.20
34807;BMP180;18310;55.586;12.286;2022-08-19T02:01:06;101153.00;;;29.10
34807;BMP180;18310;55.586;12.286;2022-08-19T02:04:11;101156.00;;;29.10
34807;BMP180;18310;55.586;12.286;2022-08-19T02:07:14;101154.00;;;29.10
34807;BMP180;18310;55.586;12.286;2022-08-19T02:10:21;101162.00;;;29.10
34807;BMP180;18310;55.586;12.286;2022-08-19T02:13:26;101157.00;;;29.10
34807;BMP180;18310;55.586;12.286;2022-08-19T02:16:30;101153.00;;;29.20
34807;BMP180;18310;55.586;12.286;2022-08-19T02:19:33;101150.00;;;29.20
34807;BMP180;18310;55.586;12.286;2022-08-19T02:22:41;101145.00;;;29.20
34807;BMP180;18310;55.586;12.286;2022-08-19T02:25:47;101150.00;;;29.20
34807;BMP180;18310;55.586;12.286;2022-08-19T02:28:51;101145.00;;;29.20
34807;BMP180;18310;55.586;12.286;2022-08-19T02:31:54;101146.00;;;29.20
34807;BMP180;18310;55.586;12.286;2022-08-19T02:34:57;101151.00;;;29.10
34807;BMP180;18310;55.586;12.286;2022-08-19T02:38:01;101150.00;;;29.10
34807;BMP180;18310;55.586;12.286;2022-08-19T02:41:27;101151.00;;;29.10
34807;BMP180;18310;55.586;12.286;2022-08-19T02:44:30;101142.00;;;29.10
34807;BMP180;18310;55.586;12.286;2022-08-19T02:47:34;101148.00;;;29.20
34807;BMP180;18310;55.586;12.286;2022-08-19T02:50:38;101140.00;;;29.20
34807;BMP180;18310;55.586;12.286;2022-08-19T02:53:54;101139.00;;;29.20
34807;BMP180;18310;55.586;12.286;2022-08-19T02:57:00;101149.00;;;29.30
34807;BMP180;18310;55.586;12.286;2022-08-19T03:00:06;101148.00;;;29.30
34807;BMP180;18310;55.586;12.286;2022-08-19T03:03:10;101138.00;;;29.30
34807;BMP180;18310;55.586;12.286;2022-08-19T03:06:15;101149.00;;;29.40
34807;BMP180;18310;55.586;12.286;2022-08-19T03:09:20;101158.00;;;29.30
34807;BMP180;18310;55.586;12.286;2022-08-19T03:12:25;101151.00;;;29.40
34807;BMP180;18310;55.586;12.286;2022-08-19T03:15:28;101147.00;;;29.40
34807;BMP180;18310;55.586;12.286;2022-08-19T03:18:32;101146.00;;;29.40
34807;BMP180;18310;55.586;12.286;2022-08-19T03:21:36;101162.00;;;29.40
34807;BMP180;18310;55.586;12.286;2022-08-19T03:24:39;101154.00;;;29.40
34807;BMP180;18310;55.586;12.286;2022-08-19T03:27:44;101150.00;;;29.40
34807;BMP180;18310;55.586;12.286;2022-08-19T03:30:58;101151.00;;;29.40
34807;BMP180;18310;55.586;12.286;2022-08-19T03:34:02;101156.00;;;29.40
34807;BMP180;18310;55.586;12.286;2022-08-19T03:37:11;101158.00;;;29.40
34807;BMP180;18310;55.586;12.286;2022-08-19T03:40:15;101155.00;;;29.30
34807;BMP180;18310;55.586;12.286;2022-08-19T03:43:19;101152.00;;;29.30
34807;BMP180;18310;55.586;12.286;2022-08-19T03:46:26;101148.00;;;29.30
34807;BMP180;18310;55.586;12.286;2022-08-19T03:49:31;101134.00;;;29.20
34807;BMP180;18310;55.586;12.286;2022-08-19T03:52:35;101136.00;;;29.20
34807;BMP180;18310;55.586;12.286;2022-08-19T03:55:40;101132.00;;;29.20
34807;BMP180;18310;55.586;12.286;2022-08-19T03:58:45;101141.00;;;29.20
34807;BMP180;18310;55.586;12.286;2022-08-19T04:01:49;101118.00;;;29.20
34807;BMP180;18310;55.586;12.286;2022-08-19T04:04:53;101128.00;;;29.20
34807;BMP180;18310;55.586;12.286;2022-08-19T04:07:57;101132.00;;;29.20
34807;BMP180;18310;55.586;12.286;2022-08-19T04:11:01;101131.00;;;29.20
34807;BMP180;18310;55.586;12.286;2022-08-19T04:14:05;101142.00;;;29.20
34807;BMP180;18310;55.586;12.286;2022-08-19T04:17:09;101138.00;;;29.20
34807;BMP180;18310;55.586;12.286;2022-08-19T04:20:13;101126.00;;;29.20
34807;BMP180;18310;55.586;12.286;2022-08-19T04:23:16;101130.00;;;29.20
34807;BMP180;18310;55.586;12.286;2022-08-19T04:26:24;101137.00;;;29.20
34807;BMP180;18310;55.586;12.286;2022-08-19T04:29:29;101124.00;;;29.30
34807;BMP180;18310;55.586;12.286;2022-08-19T04:32:32;101142.00;;;29.30
34807;BMP180;18310;55.586;12.286;2022-08-19T04:35:44;101135.00;;;29.30
34807;BMP180;18310;55.586;12.286;2022-08-19T04:38:48;101132.00;;;29.40
34807;BMP180;18310;55.586;12.286;2022-08-19T04:41:51;101134.00;;;29.50
34807;BMP180;18310;55.586;12.286;2022-08-19T04:45:14;101138.00;;;29.50
34807;BMP180;18310;55.586;12.286;2022-08-19T04:48:18;101139.00;;;29.50
34807;BMP180;18310;55.586;12.286;2022-08-19T04:51:28;101138.00;;;29.60
34807;BMP180;18310;55.586;12.286;2022-08-19T04:54:32;101135.00;;;29.60
34807;BMP180;18310;55.586;12.286;2022-08-19T04:57:40;101147.00;;;29.60
34807;BMP180;18310;55.586;12.286;2022-08-19T05:00:44;101147.00;;;29.60
34807;BMP180;18310;55.586;12.286;2022-08-19T05:03:48;101155.00;;;29.70
34807;BMP180;18310;55.586;12.286;2022-08-19T05:06:52;101164.00;;;29.80
34807;BMP180;18310;55.586;12.286;2022-08-19T05:10:02;101166.00;;;29.90
34807;BMP180;18310;55.586;12.286;2022-08-19T05:13:07;101163.00;;;30.10
34807;BMP180;18310;55.586;12.286;2022-08-19T05:16:16;101161.00;;;30.30
34807;BMP180;18310;55.586;12.286;2022-08-19T05:19:19;101177.00;;;30.40
34807;BMP180;18310;55.586;12.286;2022-08-19T05:22:41;101178.00;;;30.60
34807;BMP180;18310;55.586;12.286;2022-08-19T05:25:44;101183.00;;;30.70
34807;BMP180;18310;55.586;12.286;2022-08-19T05:28:48;101184.00;;;30.80
34807;BMP180;18310;55.586;12.286;2022-08-19T05:31:57;101182.00;;;30.90
34807;BMP180;18310;55.586;12.286;2022-08-19T05:35:01;101191.00;;;31.00
34807;BMP180;18310;55.586;12.286;2022-08-19T05:38:05;101190.00;;;31.20
34807;BMP180;18310;55.586;12.286;2022-08-19T05:41:10;101193.00;;;31.30
34807;BMP180;18310;55.586;12.286;2022-08-19T05:44:16;101178.00;;;31.30
34807;BMP180;18310;55.586;12.286;2022-08-19T05:47:21;101184.00;;;31.40
34807;BMP180;18310;55.586;12.286;2022-08-19T05:50:25;101188.00;;;31.40
34807;BMP180;18310;55.586;12.286;2022-08-19T05:53:28;101191.00;;;31.40
34807;BMP180;18310;55.586;12.286;2022-08-19T05:56:32;101189.00;;;31.40
34807;BMP180;18310;55.586;12.286;2022-08-19T05:59:38;101194.00;;;31.40
34807;BMP180;18310;55.586;12.286;2022-08-19T06:02:43;101200.00;;;31.30
34807;BMP180;18310;55.586;12.286;2022-08-19T06:05:46;101204.00;;;31.40
34807;BMP180;18310;55.586;12.286;2022-08-19T06:08:53;101200.00;;;31.50
34807;BMP180;18310;55.586;12.286;2022-08-19T06:11:58;101210.00;;;31.50
34807;BMP180;18310;55.586;12.286;2022-08-19T06:15:07;101201.00;;;31.40
34807;BMP180;18310;55.586;12.286;2022-08-19T06:18:13;101206.00;;;31.40
34807;BMP180;18310;55.586;12.286;2022-08-19T06:21:17;101208.00;;;31.50
34807;BMP180;18310;55.586;12.286;2022-08-19T06:24:23;101212.00;;;31.50
34807;BMP180;18310;55.586;12.286;2022-08-19T06:27:26;101208.00;;;31.60
34807;BMP180;18310;55.586;12.286;2022-08-19T06:30:31;101202.00;;;31.70
34807;BMP180;18310;55.586;12.286;2022-08-19T06:33:36;101200.00;;;31.70
34807;BMP180;18310;55.586;12.286;2022-08-19T06:36:46;101209.00;;;31.60
34807;BMP180;18310;55.586;12.286;2022-08-19T06:39:51;101207.00;;;31.60
34807;BMP180;18310;55.586;12.286;2022-08-19T06:42:54;101214.00;;;31.60
34807;BMP180;18310;55.586;12.286;2022-08-19T06:46:01;101207.00;;;31.60
34807;BMP180;18310;55.586;12.286;2022-08-19T06:49:09;101212.00;;;31.60
34807;BMP180;18310;55.586;12.286;2022-08-19T06:52:16;101217.00;;;31.70
34807;BMP180;18310;55.586;12.286;2022-08-19T06:55:19;101209.00;;;31.70
34807;BMP180;18310;55.586;12.286;2022-08-19T06:58:22;101208.00;;;31.70
34807;BMP180;18310;55.586;12.286;2022-08-19T07:01:27;101203.00;;;31.80
34807;BMP180;18310;55.586;12.286;2022-08-19T07:04:34;101204.00;;;31.90
34807;BMP180;18310;55.586;12.286;2022-08-19T07:07:38;101210.00;;;32.00
34807;BMP180;18310;55.586;12.286;2022-08-19T07:10:48;101212.00;;;32.00
34807;BMP180;18310;55.586;12.286;2022-08-19T07:13:52;101213.00;;;32.10
34807;BMP180;18310;55.586;12.286;2022-08-19T07:16:56;101203.00;;;32.40
34807;BMP180;18310;55.586;12.286;2022-08-19T07:20:02;101203.00;;;32.70
34807;BMP180;18310;55.586;12.286;2022-08-19T07:23:10;101214.00;;;33.00
34807;BMP180;18310;55.586;12.286;2022-08-19T07:26:20;101206.00;;;33.20
34807;BMP180;18310;55.586;12.286;2022-08-19T07:29:32;101207.00;;;33.30
34807;BMP180;18310;55.586;12.286;2022-08-19T07:32:36;101204.00;;;33.40
34807;BMP180;18310;55.586;12.286;2022-08-19T07:35:41;101208.00;;;33.50
34807;BMP180;18310;55.586;12.286;2022-08-19T07:38:47;101218.00;;;33.50
34807;BMP180;18310;55.586;12.286;2022-08-19T07:41:51;101217.00;;;33.60
34807;BMP180;18310;55.586;12.286;2022-08-19T07:44:54;101222.00;;;33.70
34807;BMP180;18310;55.586;12.286;2022-08-19T07:47:57;101224.00;;;33.70
34807;BMP180;18310;55.586;12.286;2022-08-19T07:51:05;101220.00;;;33.80
34807;BMP180;18310;55.586;12.286;2022-08-19T07:54:10;101221.00;;;33.80
34807;BMP180;18310;55.586;12.286;2022-08-19T07:57:13;101216.00;;;33.90
34807;BMP180;18310;55.586;12.286;2022-08-19T08:00:16;101232.00;;;33.90
34807;BMP180;18310;55.586;12.286;2022-08-19T08:03:27;101231.00;;;33.90
34807;BMP180;18310;55.586;12.286;2022-08-19T08:06:45;101235.00;;;33.90
34807;BMP180;18310;55.586;12.286;2022-08-19T08:10:07;101238.00;;;33.90
34807;BMP180;18310;55.586;12.286;2022-08-19T08:13:22;101234.00;;;33.90
34807;BMP180;18310;55.586;12.286;2022-08-19T08:16:27;101229.00;;;33.90
34807;BMP180;18310;55.586;12.286;2022-08-19T08:19:33;101240.00;;;33.90
34807;BMP180;18310;55.586;12.286;2022-08-19T08:22:43;101239.00;;;33.90
34807;BMP180;18310;55.586;12.286;2022-08-19T08:26:05;101243.00;;;33.90
34807;BMP180;18310;55.586;12.286;2022-08-19T08:29:08;101249.00;;;34.00
34807;BMP180;18310;55.586;12.286;2022-08-19T08:32:14;101243.00;;;34.00
34807;BMP180;18310;55.586;12.286;2022-08-19T08:35:20;101245.00;;;34.00
34807;BMP180;18310;55.586;12.286;2022-08-19T08:38:25;101244.00;;;33.90
34807;BMP180;18310;55.586;12.286;2022-08-19T08:41:45;101236.00;;;34.00
34807;BMP180;18310;55.586;12.286;2022-08-19T08:44:58;101237.00;;;34.10
34807;BMP180;18310;55.586;12.286;2022-08-19T08:48:12;101235.00;;;34.30
34807;BMP180;18310;55.586;12.286;2022-08-19T08:51:32;101239.00;;;34.60
34807;BMP180;18310;55.586;12.286;2022-08-19T08:54:41;101242.00;;;34.70
34807;BMP180;18310;55.586;12.286;2022-08-19T08:58:03;101246.00;;;34.90
34807;BMP180;18310;55.586;12.286;2022-08-19T09:01:10;101227.00;;;35.10
34807;BMP180;18310;55.586;12.286;2022-08-19T09:04:14;101234.00;;;35.30
34807;BMP180;18310;55.586;12.286;2022-08-19T09:07:32;101236.00;;;35.50
34807;BMP180;18310;55.586;12.286;2022-08-19T09:10:49;101236.00;;;35.60
34807;BMP180;18310;55.586;12.286;2022-08-19T09:14:08;101232.00;;;35.70
34807;BMP180;18310;55.586;12.286;2022-08-19T09:17:35;101239.00;;;35.90
34807;BMP180;18310;55.586;12.286;2022-08-19T09:20:40;101245.00;;;35.90
34807;BMP180;18310;55.586;12.286;2022-08-19T09:23:44;101246.00;;;35.90
34807;BMP180;18310;55.586;12.286;2022-08-19T09:26:53;101236.00;;;36.00
34807;BMP180;18310;55.586;12.286;2022-08-19T09:29:58;101242.00;;;36.10
34807;BMP180;18310;55.586;12.286;2022-08-19T09:33:02;101243.00;;;36.20
34807;BMP180;18310;55.586;12.286;2022-08-19T09:36:10;101246.00;;;36.20
34807;BMP180;18310;55.586;12.286;2022-08-19T09:39:22;101255.00;;;36.10
34807;BMP180;18310;55.586;12.286;2022-08-19T09:42:38;101261.00;;;35.90
34807;BMP180;18310;55.586;12.286;2022-08-19T09:45:52;101257.00;;;35.70
34807;BMP180;18310;55.586;12.286;2022-08-19T09:48:59;101261.00;;;35.50
34807;BMP180;18310;55.586;12.286;2022-08-19T09:52:09;101259.00;;;35.30
34807;BMP180;18310;55.586;12.286;2022-08-19T09:55:14;101260.00;;;35.20
34807;BMP180;18310;55.586;12.286;2022-08-19T09:58:20;101257.00;;;35.10
34807;BMP180;18310;55.586;12.286;2022-08-19T10:01:30;101259.00;;;35.00
34807;BMP180;18310;55.586;12.286;2022-08-19T10:04:33;101259.00;;;35.00
34807;BMP180;18310;55.586;12.286;2022-08-19T10:07:54;101257.00;;;34.90
34807;BMP180;18310;55.586;12.286;2022-08-19T10:10:58;101258.00;;;34.80
34807;BMP180;18310;55.586;12.286;2022-08-19T10:14:24;101254.00;;;34.70
34807;BMP180;18310;55.586;12.286;2022-08-19T10:17:28;101248.00;;;34.60
34807;BMP180;18310;55.586;12.286;2022-08-19T10:20:34;101248.00;;;34.50
34807;BMP180;18310;55.586;12.286;2022-08-19T10:23:42;101243.00;;;34.50
34807;BMP180;18310;55.586;12.286;2022-08-19T10:26:47;101246.00;;;34.50
34807;BMP180;18310;55.586;12.286;2022-08-19T10:30:01;101253.00;;;34.40
34807;BMP180;18310;55.586;12.286;2022-08-19T10:33:05;101253.00;;;34.40
34807;BMP180;18310;55.586;12.286;2022-08-19T10:36:17;101249.00;;;34.30
34807;BMP180;18310;55.586;12.286;2022-08-19T10:39:20;101250.00;;;34.30
34807;BMP180;18310;55.586;12.286;2022-08-19T10:42:24;101245.00;;;34.20
34807;BMP180;18310;55.586;12.286;2022-08-19T10:45:29;101255.00;;;34.00
34807;BMP180;18310;55.586;12.286;2022-08-19T10:48:34;101252.00;;;33.90
34807;BMP180;18310;55.586;12.286;2022-08-19T10:51:39;101249.00;;;33.90
34807;BMP180;18310;55.586;12.286;2022-08-19T10:55:00;101251.00;;;33.80
34807;BMP180;18310;55.586;12.286;2022-08-19T10:58:22;101253.00;;;33.70
34807;BMP180;18310;55.586;12.286;2022-08-19T11:01:27;101258.00;;;33.60
34807;BMP180;18310;55.586;12.286;2022-08-19T11:04:31;101255.00;;;33.50
34807;BMP180;18310;55.586;12.286;2022-08-19T11:07:37;101256.00;;;33.40
34807;BMP180;18310;55.586;12.286;2022-08-19T11:10:42;101254.00;;;33.30
34807;BMP180;18310;55.586;12.286;2022-08-19T11:13:51;101259.00;;;33.20
34807;BMP180;18310;55.586;12.286;2022-08-19T11:16:57;101262.00;;;33.10
34807;BMP180;18310;55.586;12.286;2022-08-19T11:20:00;101261.00;;;33.00
34807;BMP180;18310;55.586;12.286;2022-08-19T11:23:06;101258.00;;;33.00
34807;BMP180;18310;55.586;12.286;2022-08-19T11:26:09;101264.00;;;32.90
34807;BMP180;18310;55.586;12.286;2022-08-19T11:29:13;101253.00;;;32.70
34807;BMP180;18310;55.586;12.286;2022-08-19T11:32:18;101266.00;;;32.60
34807;BMP180;18310;55.586;12.286;2022-08-19T11:35:21;101249.00;;;32.40
34807;BMP180;18310;55.586;12.286;2022-08-19T11:38:25;101252.00;;;32.20
34807;BMP180;18310;55.586;12.286;2022-08-19T11:41:28;101259.00;;;32.10
34807;BMP180;18310;55.586;12.286;2022-08-19T11:44:32;101246.00;;;32.00
34807;BMP180;18310;55.586;12.286;2022-08-19T11:47:39;101243.00;;;31.90
34807;BMP180;18310;55.586;12.286;2022-08-19T11:50:42;101247.00;;;31.90
34807;BMP180;18310;55.586;12.286;2022-08-19T11:53:46;101247.00;;;31.90
34807;BMP180;18310;55.586;12.286;2022-08-19T11:56:49;101244.00;;;32.00
34807;BMP180;18310;55.586;12.286;2022-08-19T11:59:52;101242.00;;;32.00
34807;BMP180;18310;55.586;12.286;2022-08-19T12:02:57;101239.00;;;32.00
34807;BMP180;18310;55.586;12.286;2022-08-19T12:06:05;101248.00;;;32.00
34807;BMP180;18310;55.586;12.286;2022-08-19T12:09:10;101247.00;;;32.10
34807;BMP180;18310;55.586;12.286;2022-08-19T12:12:13;101241.00;;;32.10
34807;BMP180;18310;55.586;12.286;2022-08-19T12:15:16;101245.00;;;32.10
34807;BMP180;18310;55.586;12.286;2022-08-19T12:18:22;101246.00;;;32.20
34807;BMP180;18310;55.586;12.286;2022-08-19T12:21:27;101237.00;;;32.30
34807;BMP180;18310;55.586;12.286;2022-08-19T12:24:31;101240.00;;;32.30
34807;BMP180;18310;55.586;12.286;2022-08-19T12:27:36;101242.00;;;32.30
34807;BMP180;18310;55.586;12.286;2022-08-19T12:30:43;101243.00;;;32.40
34807;BMP180;18310;55.586;12.286;2022-08-19T12:33:47;101238.00;;;32.40
34807;BMP180;18310;55.586;12.286;2022-08-19T12:36:51;101238.00;;;32.50
34807;BMP180;18310;55.586;12.286;2022-08-19T12:39:54;101239.00;;;32.50
34807;BMP180;18310;55.586;12.286;2022-08-19T12:42:57;101235.00;;;32.40
34807;BMP180;18310;55.586;12.286;2022-08-19T12:46:01;101243.00;;;32.40
34807;BMP180;18310;55.586;12.286;2022-08-19T12:49:07;101233.00;;;32.30
34807;BMP180;18310;55.586;12.286;2022-08-19T12:52:30;101230.00;;;32.20
34807;BMP180;18310;55.586;12.286;2022-08-19T12:55:34;101233.00;;;32.20
34807;BMP180;18310;55.586;12.286;2022-08-19T12:58:37;101230.00;;;32.20
34807;BMP180;18310;55.586;12.286;2022-08-19T13:01:40;101231.00;;;32.20
34807;BMP180;18310;55.586;12.286;2022-08-19T13:04:45;101226.00;;;32.20
34807;BMP180;18310;55.586;12.286;2022-08-19T13:07:50;101223.00;;;32.30
34807;BMP180;18310;55.586;12.286;2022-08-19T13:10:54;101228.00;;;32.20
34807;BMP180;18310;55.586;12.286;2022-08-19T13:13:58;101223.00;;;32.30
34807;BMP180;18310;55.586;12.286;2022-08-19T13:17:03;101225.00;;;32.40
34807;BMP180;18310;55.586;12.286;2022-08-19T13:20:10;101220.00;;;32.40
34807;BMP180;18310;55.586;12.286;2022-08-19T13:23:14;101223.00;;;32.40
34807;BMP180;18310;55.586;12.286;2022-08-19T13:26:19;101227.00;;;32.40
34807;BMP180;18310;55.586;12.286;2022-08-19T13:29:22;101225.00;;;32.40
34807;BMP180;18310;55.586;12.286;2022-08-19T13:32:44;101227.00;;;32.40
34807;BMP180;18310;55.586;12.286;2022-08-19T13:36:06;101227.00;;;32.40
34807;BMP180;18310;55.586;12.286;2022-08-19T13:39:12;101233.00;;;32.30
34807;BMP180;18310;55.586;12.286;2022-08-19T13:42:15;101237.00;;;32.30
34807;BMP180;18310;55.586;12.286;2022-08-19T13:45:23;101229.00;;;32.20
34807;BMP180;18310;55.586;12.286;2022-08-19T13:48:27;101237.00;;;32.20
34807;BMP180;18310;55.586;12.286;2022-08-19T13:51:31;101227.00;;;32.30
34807;BMP180;18310;55.586;12.286;2022-08-19T13:54:35;101231.00;;;32.30
34807;BMP180;18310;55.586;12.286;2022-08-19T13:57:38;101224.00;;;32.30
34807;BMP180;18310;55.586;12.286;2022-08-19T14:00:45;101213.00;;;32.30
34807;BMP180;18310;55.586;12.286;2022-08-19T14:03:48;101212.00;;;32.20
34807;BMP180;18310;55.586;12.286;2022-08-19T14:06:53;101215.00;;;32.20
34807;BMP180;18310;55.586;12.286;2022-08-19T14:09:56;101204.00;;;32.10
34807;BMP180;18310;55.586;12.286;2022-08-19T14:13:03;101216.00;;;32.20
34807;BMP180;18310;55.586;12.286;2022-08-19T14:16:08;101210.00;;;32.10
34807;BMP180;18310;55.586;12.286;2022-08-19T14:19:12;101206.00;;;32.10
34807;BMP180;18310;55.586;12.286;2022-08-19T14:22:16;101204.00;;;32.10
34807;BMP180;18310;55.586;12.286;2022-08-19T14:25:26;101205.00;;;32.10
34807;BMP180;18310;55.586;12.286;2022-08-19T14:28:30;101215.00;;;32.10
34807;BMP180;18310;55.586;12.286;2022-08-19T14:31:33;101220.00;;;32.10
34807;BMP180;18310;55.586;12.286;2022-08-19T14:34:36;101217.00;;;32.10
34807;BMP180;18310;55.586;12.286;2022-08-19T14:37:43;101215.00;;;32.20
34807;BMP180;18310;55.586;12.286;2022-08-19T14:40:47;101218.00;;;32.20
34807;BMP180;18310;55.586;12.286;2022-08-19T14:43:53;101219.00;;;32.20
34807;BMP180;18310;55.586;12.286;2022-08-19T14:46:56;101212.00;;;32.20
34807;BMP180;18310;55.586;12.286;2022-08-19T14:50:00;101208.00;;;32.10
34807;BMP180;18310;55.586;12.286;2022-08-19T14:53:08;101224.00;;;32.00
34807;BMP180;18310;55.586;12.286;2022-08-19T14:56:18;101213.00;;;32.00
34807;BMP180;18310;55.586;12.286;2022-08-19T14:59:21;101222.00;;;31.90
34807;BMP180;18310;55.586;12.286;2022-08-19T15:02:25;101218.00;;;31.80
34807;BMP180;18310;55.586;12.286;2022-08-19T15:05:36;101215.00;;;31.70
34807;BMP180;18310;55.586;12.286;2022-08-19T15:08:42;101206.00;;;31.60
34807;BMP180;18310;55.586;12.286;2022-08-19T15:11:47;101211.00;;;31.60
34807;BMP180;18310;55.586;12.286;2022-08-19T15:14:51;101209.00;;;31.50
34807;BMP180;18310;55.586;12.286;2022-08-19T15:17:58;101210.00;;;31.50
34807;BMP180;18310;55.586;12.286;2022-08-19T15:21:04;101210.00;;;31.40
34807;BMP180;18310;55.586;12.286;2022-08-19T15:24:10;101202.00;;;31.40
34807;BMP180;18310;55.586;12.286;2022-08-19T15:27:15;101201.00;;;31.40
34807;BMP180;18310;55.586;12.286;2022-08-19T15:30:22;101192.00;;;31.40
34807;BMP180;18310;55.586;12.286;2022-08-19T15:33:26;101189.00;;;31.50
34807;BMP180;18310;55.586;12.286;2022-08-19T15:36:30;101197.00;;;31.50
34807;BMP180;18310;55.586;12.286;2022-08-19T15:39:35;101195.00;;;31.50
34807;BMP180;18310;55.586;12.286;2022-08-19T15:42:39;101181.00;;;31.50
34807;BMP180;18310;55.586;12.286;2022-08-19T15:45:45;101179.00;;;31.40
34807;BMP180;18310;55.586;12.286;2022-08-19T15:48:52;101174.00;;;31.40
34807;BMP180;18310;55.586;12.286;2022-08-19T15:52:01;101187.00;;;31.40
34807;BMP180;18310;55.586;12.286;2022-08-19T15:55:06;101188.00;;;31.40
34807;BMP180;18310;55.586;12.286;2022-08-19T15:58:17;101189.00;;;31.30
34807;BMP180;18310;55.586;12.286;2022-08-19T16:01:37;101185.00;;;31.30
34807;BMP180;18310;55.586;12.286;2022-08-19T16:04:59;101174.00;;;31.30
34807;BMP180;18310;55.586;12.286;2022-08-19T16:08:20;101170.00;;;31.20
34807;BMP180;18310;55.586;12.286;2022-08-19T16:11:29;101161.00;;;31.20
34807;BMP180;18310;55.586;12.286;2022-08-19T16:14:35;101164.00;;;31.10
34807;BMP180;18310;55.586;12.286;2022-08-19T16:17:40;101171.00;;;31.00
34807;BMP180;18310;55.586;12.286;2022-08-19T16:20:43;101175.00;;;31.00
34807;BMP180;18310;55.586;12.286;2022-08-19T16:23:49;101172.00;;;31.00
34807;BMP180;18310;55.586;12.286;2022-08-19T16:26:54;101167.00;;;31.00
34807;BMP180;18310;55.586;12.286;2022-08-19T16:29:58;101173.00;;;31.00
34807;BMP180;18310;55.586;12.286;2022-08-19T16:33:01;101175.00;;;31.00
34807;BMP180;18310;55.586;12.286;2022-08-19T16:36:05;101171.00;;;30.90
34807;BMP180;18310;55.586;12.286;2022-08-19T16:39:12;101179.00;;;30.90
34807;BMP180;18310;55.586;12.286;2022-08-19T16:42:17;101178.00;;;30.90
34807;BMP180;18310;55.586;12.286;2022-08-19T16:45:21;101173.00;;;30.90
34807;BMP180;18310;55.586;12.286;2022-08-19T16:48:28;101164.00;;;30.90
34807;BMP180;18310;55.586;12.286;2022-08-19T16:51:32;101166.00;;;30.80
34807;BMP180;18310;55.586;12.286;2022-08-19T16:54:36;101166.00;;;30.80
34807;BMP180;18310;55.586;12.286;2022-08-19T16:57:41;101173.00;;;30.80
34807;BMP180;18310;55.586;12.286;2022-08-19T17:00:45;101173.00;;;30.80
34807;BMP180;18310;55.586;12.286;2022-08-19T17:03:49;101164.00;;;30.70
34807;BMP180;18310;55.586;12.286;2022-08-19T17:06:53;101174.00;;;30.70
34807;BMP180;18310;55.586;12.286;2022-08-19T17:09:57;101170.00;;;30.60
34807;BMP180;18310;55.586;12.286;2022-08-19T17:13:01;101176.00;;;30.60
34807;BMP180;18310;55.586;12.286;2022-08-19T17:16:06;101181.00;;;30.50
34807;BMP180;18310;55.586;12.286;2022-08-19T17:19:09;101188.00;;;30.50
34807;BMP180;18310;55.586;12.286;2022-08-19T17:22:12;101187.00;;;30.50